Time;durP1;ratioP1;P1;durP2;ratioP2;P2;SDS_P1;SDS_P2;PMS_P1;PMS_P2;Temp;Humidity;BMP_temperature;BMP_pressure;BME280_temperature;BME280_humidity;BME280_pressure;Samples;Min_cycle;Max_cycle;Signal;HPM_P1;HPM_P2
2022/11/17 00:00:09;;;;;;;7.07;1.75;;;;;;;13.02;64.33;98104.38;5032335;28;20061;-78
2022/11/17 00:02:38;;;;;;;5.57;1.77;;;;;;;13.00;64.48;98096.38;5025692;28;20058;-78
2022/11/17 00:05:05;;;;;;;4.43;1.95;;;;;;;13.07;64.18;98086.44;5030649;28;20525;-78
2022/11/17 00:07:34;;;;;;;4.38;1.90;;;;;;;13.09;63.96;98084.06;5032131;28;20050;-78
2022/11/17 00:10:01;;;;;;;5.63;2.15;;;;;;;13.08;63.22;98074.88;5032021;28;20064;-78
2022/11/17 00:15:13;;;;;;;3.17;1.65;;;;;;;13.15;63.23;98077.69;5034971;28;20068;-79
2022/11/17 00:17:46;;;;;;;4.38;1.88;;;;;;;13.15;63.72;98058.13;5032282;28;20498;-78
2022/11/17 00:23:01;;;;;;;6.32;2.58;;;;;;;13.03;64.99;98064.06;5032331;28;20068;-78
2022/11/17 00:25:29;;;;;;;5.03;2.00;;;;;;;13.02;65.56;98047.66;5032031;28;20053;-78
2022/11/17 00:27:59;;;;;;;8.27;2.08;;;;;;;12.97;66.53;98048.84;5032096;28;20049;-77
2022/11/17 00:36:15;;;;;;;6.32;2.38;;;;;;;12.62;69.26;98032.66;5037294;28;20068;-78
2022/11/17 00:38:45;;;;;;;4.93;2.10;;;;;;;12.26;71.58;98022.00;5036394;28;20500;-78
2022/11/17 00:41:12;;;;;;;5.45;2.03;;;;;;;12.28;72.74;98018.81;5035798;28;20058;-78
2022/11/17 00:43:40;;;;;;;3.60;2.05;;;;;;;12.23;72.86;98016.41;5036353;28;20414;-78
2022/11/17 00:46:07;;;;;;;3.67;2.30;;;;;;;12.13;72.95;97995.59;5036066;28;20064;-79
2022/11/17 00:48:37;;;;;;;5.93;2.22;;;;;;;12.14;72.03;97986.03;5035726;28;20052;-79
2022/11/17 00:51:05;;;;;;;5.57;2.13;;;;;;;12.17;72.05;97986.06;5035964;28;20418;-78
2022/11/17 00:53:34;;;;;;;3.17;1.90;;;;;;;12.17;71.35;97968.50;5036217;28;20053;-79
2022/11/17 00:56:01;;;;;;;3.33;2.13;;;;;;;12.24;70.72;97956.59;5035536;28;20049;-78
2022/11/17 00:58:29;;;;;;;5.82;2.30;;;;;;;12.14;70.99;97964.50;5035358;28;20522;-79
2022/11/17 01:00:58;;;;;;;4.45;1.85;;;;;;;12.20;70.79;97956.59;5035329;28;20437;-78
2022/11/17 01:03:28;;;;;;;5.57;1.90;;;;;;;12.12;71.31;97952.13;5036093;28;20057;-78
2022/11/17 01:06:02;;;;;;;;;;;;;;;12.12;70.81;97946.56;5035897;28;20065;-78
2022/11/17 01:08:30;;;;;;;6.40;2.10;;;;;;;12.15;70.84;97929.81;5035483;28;19927;-78
2022/11/17 01:11:03;;;;;;;5.25;1.90;;;;;;;12.13;70.79;97926.63;5015692;28;20064;-79
2022/11/17 01:13:31;;;;;;;5.95;1.92;;;;;;;12.22;69.99;97923.50;5033429;28;20065;-79
2022/11/17 01:16:06;;;;;;;5.72;2.53;;;;;;;12.19;69.51;97933.44;5034809;28;20076;-79
2022/11/17 01:18:34;;;;;;;5.82;1.90;;;;;;;12.20;70.25;97917.53;5035256;28;20049;-79
2022/11/17 01:21:09;;;;;;;3.85;1.85;;;;;;;12.25;69.44;97908.78;5035604;28;20061;-79
2022/11/17 01:23:37;;;;;;;5.22;2.00;;;;;;;12.31;69.55;97900.84;5035387;28;20065;-78
2022/11/17 01:26:06;;;;;;;4.13;1.70;;;;;;;12.31;68.89;97898.06;5035297;28;20421;-78
2022/11/17 01:28:34;;;;;;;4.28;1.75;;;;;;;12.32;68.46;97892.06;5035515;28;20397;-78
2022/11/17 01:31:05;;;;;;;2.47;1.58;;;;;;;12.33;68.69;97887.28;5034075;28;20084;-78
2022/11/17 01:33:33;;;;;;;3.30;1.60;;;;;;;12.38;69.08;97872.97;5035282;28;20520;-79
2022/11/17 01:36:02;;;;;;;4.63;1.63;;;;;;;12.40;68.00;97878.94;5034960;28;20062;-78
2022/11/17 01:38:31;;;;;;;3.38;1.45;;;;;;;12.44;68.43;97882.56;5034920;28;20050;-78
2022/11/17 01:40:59;;;;;;;3.33;1.90;;;;;;;12.30;69.69;97876.91;5035346;28;20073;-78
2022/11/17 01:43:37;;;;;;;3.47;1.40;;;;;;;12.39;70.66;97874.56;5035405;28;20053;-78
2022/11/17 01:46:11;;;;;;;2.58;1.20;;;;;;;12.41;69.36;97863.00;5034066;28;20053;-78
2022/11/17 01:48:39;;;;;;;3.05;1.48;;;;;;;12.31;69.58;97861.75;5033402;28;20061;-78
2022/11/17 01:51:07;;;;;;;3.35;1.67;;;;;;;12.39;69.12;97849.44;5034932;28;20049;-78
2022/11/17 01:53:37;;;;;;;2.65;1.50;;;;;;;12.41;69.94;97838.69;5034395;28;20057;-79
2022/11/17 01:56:08;;;;;;;;;;;;;;;12.35;69.47;97845.84;5035011;28;20061;-79
2022/11/17 01:58:40;;;;;;;3.72;1.23;;;;;;;12.38;69.67;97845.84;5034337;28;20366;-80
2022/11/17 02:01:07;;;;;;;4.43;1.45;;;;;;;12.10;71.73;97826.97;5033483;28;20387;-78
2022/11/17 02:03:36;;;;;;;3.45;1.48;;;;;;;11.91;75.11;97832.81;5034204;28;20505;-77
2022/11/17 02:06:08;;;;;;;4.13;1.80;;;;;;;11.81;75.45;97825.94;5033966;28;20064;-77
2022/11/17 02:08:40;;;;;;;7.00;2.22;;;;;;;11.79;76.22;97822.75;5016379;28;20469;-78
2022/11/17 02:11:12;;;;;;;3.65;1.65;;;;;;;11.84;74.93;97818.78;5014746;28;20053;-78
2022/11/17 02:13:41;;;;;;;5.47;1.70;;;;;;;11.88;74.22;97816.81;5020762;28;20056;-77
2022/11/17 02:16:11;;;;;;;3.20;1.40;;;;;;;11.88;74.68;97805.66;5034679;28;20057;-77
2022/11/17 02:18:39;;;;;;;3.50;1.50;;;;;;;11.89;73.98;97805.31;5034142;28;20057;-77
2022/11/17 02:21:49;;;;;;;2.80;1.50;;;;;;;11.77;74.56;97795.22;5033993;28;20053;-78
2022/11/17 02:24:31;;;;;;;;;;;;;;;11.58;75.89;97782.34;5035080;28;20057;-77
2022/11/17 02:27:30;;;;;;;5.03;1.40;;;;;;;11.61;76.48;97785.56;5034416;28;19921;-77
2022/11/17 02:30:03;;;;;;;3.03;1.40;;;;;;;11.60;75.88;97779.19;5033624;28;20061;-77
2022/11/17 02:32:39;;;;;;;5.90;1.27;;;;;;;11.62;75.63;97782.38;5034266;28;20069;-77
2022/11/17 02:35:15;;;;;;;6.32;1.60;;;;;;;11.48;76.09;97759.97;5034478;28;20483;-77
2022/11/17 02:37:51;;;;;;;4.28;1.63;;;;;;;11.36;76.42;97770.25;5033662;28;20049;-77
2022/11/17 02:40:25;;;;;;;1.77;1.20;;;;;;;11.40;77.10;97763.91;5034405;28;20064;-77
2022/11/17 02:45:50;;;;;;;3.25;1.10;;;;;;;11.30;78.05;97746.72;5034349;28;20068;-77
2022/11/17 02:48:23;;;;;;;2.58;1.23;;;;;;;11.26;77.45;97754.25;5033935;28;20060;-77
2022/11/17 02:50:53;;;;;;;3.30;1.30;;;;;;;11.36;77.30;97733.22;5033746;28;20060;-77
2022/11/17 02:53:22;;;;;;;2.50;1.15;;;;;;;11.28;77.80;97734.38;5033523;28;20133;-78
2022/11/17 02:55:52;;;;;;;1.70;0.95;;;;;;;11.25;77.78;97747.06;5033811;28;20490;-78
2022/11/17 02:58:22;;;;;;;3.35;1.17;;;;;;;11.04;78.78;97730.19;5032900;28;20137;-78
2022/11/17 03:01:02;;;;;;;4.68;1.60;;;;;;;10.76;82.14;97732.31;5033171;28;20053;-78
2022/11/17 03:03:45;;;;;;;5.35;1.20;;;;;;;10.55;84.18;97751.59;5013765;28;20073;-79
2022/11/17 03:06:24;;;;;;;3.70;1.40;;;;;;;10.60;84.45;97737.31;5014144;28;20058;-79
2022/11/17 03:09:05;;;;;;;7.38;1.60;;;;;;;10.53;85.33;97729.69;5014144;28;20470;-78
2022/11/17 03:11:41;;;;;;;3.95;1.60;;;;;;;10.41;87.78;97743.88;5016567;28;20077;-78
2022/11/17 03:14:20;;;;;;;3.95;1.40;;;;;;;10.34;87.44;97713.19;5033585;28;20057;-78
2022/11/17 03:16:56;;;;;;;6.13;1.60;;;;;;;10.39;88.03;97709.25;5033410;28;20058;-78
2022/11/17 03:19:29;;;;;;;7.93;1.50;;;;;;;10.46;86.97;97701.81;5033168;28;20141;-79
2022/11/17 03:22:04;;;;;;;2.92;1.40;;;;;;;10.47;86.85;97702.59;5033270;28;20064;-79
2022/11/17 03:24:36;;;;;;;3.22;1.70;;;;;;;10.55;86.47;97698.72;5032850;28;20061;-79
2022/11/17 03:27:08;;;;;;;4.13;1.50;;;;;;;10.56;86.34;97689.97;5031010;28;20061;-79
2022/11/17 03:29:41;;;;;;;3.08;1.45;;;;;;;10.64;86.06;97692.81;5032554;28;20054;-79
2022/11/17 03:32:10;;;;;;;3.05;1.20;;;;;;;10.66;85.31;97680.13;5033123;28;20402;-79
2022/11/17 03:34:44;;;;;;;3.20;1.30;;;;;;;10.66;85.20;97680.13;5032885;28;20057;-79
2022/11/17 03:37:13;;;;;;;2.20;1.13;;;;;;;10.63;86.07;97668.97;5033129;28;20057;-79
2022/11/17 03:39:43;;;;;;;4.45;1.52;;;;;;;10.47;86.05;97685.91;5033186;28;20060;-79
2022/11/17 03:42:17;;;;;;;6.57;1.80;;;;;;;10.48;87.46;97684.72;5032303;28;20057;-78
2022/11/17 03:44:51;;;;;;;3.08;1.20;;;;;;;10.63;87.04;97688.47;5033727;28;20513;-79
2022/11/17 03:47:21;;;;;;;4.13;1.05;;;;;;;10.41;86.63;97685.44;5033037;28;20049;-78
2022/11/17 03:49:57;;;;;;;4.32;1.40;;;;;;;10.49;88.57;97672.41;5032894;28;20060;-78
2022/11/17 03:52:25;;;;;;;3.45;1.50;;;;;;;10.44;90.06;97676.34;5032462;28;20057;-78
2022/11/17 03:54:53;;;;;;;3.88;1.00;;;;;;;10.38;89.16;97675.09;5032597;28;20064;-78
2022/11/17 03:57:29;;;;;;;2.65;1.33;;;;;;;10.49;88.19;97691.88;5030918;28;20056;-78
2022/11/17 04:00:02;;;;;;;4.75;1.38;;;;;;;10.59;87.77;97665.34;5032501;28;20422;-78
2022/11/17 04:02:30;;;;;;;2.90;1.20;;;;;;;10.60;86.35;97664.16;5032128;28;20057;-79
2022/11/17 04:05:06;;;;;;;1.95;1.08;;;;;;;10.65;86.78;97698.00;5032727;28;20517;-78
2022/11/17 04:07:34;;;;;;;1.90;1.13;;;;;;;10.54;86.77;97672.03;5031888;28;20053;-78
2022/11/17 04:10:02;;;;;;;6.57;1.20;;;;;;;10.45;86.56;97675.16;5031018;28;20060;-78
2022/11/17 04:18:00;;;;;;;3.63;1.38;;;;;;;10.35;89.94;97659.13;5016723;28;20068;-78
2022/11/17 04:20:34;;;;;;;2.70;1.50;;;;;;;10.48;89.04;97643.78;5012828;28;20062;-78
2022/11/17 04:23:08;;;;;;;2.30;1.10;;;;;;;10.50;89.09;97649.78;5020823;28;20080;-79
2022/11/17 04:28:37;;;;;;;3.42;1.25;;;;;;;10.63;87.03;97661.41;5030086;28;20064;-78
2022/11/17 04:31:22;;;;;;;2.50;1.08;;;;;;;10.65;86.79;97647.13;5032101;28;20068;-78
2022/11/17 04:33:51;;;;;;;3.30;1.70;;;;;;;10.63;87.09;97638.34;5028878;28;20053;-79
2022/11/17 04:36:20;;;;;;;2.17;1.00;;;;;;;10.60;86.32;97644.66;5030621;28;20061;-79
2022/11/17 04:38:50;;;;;;;2.50;1.20;;;;;;;10.58;85.80;97639.47;5031329;28;20049;-79
2022/11/17 04:44:04;;;;;;;2.28;1.23;;;;;;;10.67;84.89;97628.03;5032785;28;20061;-79
2022/11/17 04:46:34;;;;;;;2.42;1.27;;;;;;;10.65;84.79;97627.63;5032115;28;20057;-79
2022/11/17 04:49:02;;;;;;;2.33;1.42;;;;;;;10.62;85.37;97617.25;5031917;28;20049;-79
2022/11/17 04:51:30;;;;;;;2.10;1.25;;;;;;;10.69;85.65;97608.97;5031601;28;20054;-79
2022/11/17 04:53:58;;;;;;;2.00;1.20;;;;;;;10.70;85.25;97610.56;5032061;28;20058;-79
2022/11/17 04:56:27;;;;;;;2.30;1.20;;;;;;;10.70;85.27;97608.56;5031849;28;20060;-79
2022/11/17 04:58:55;;;;;;;2.30;1.17;;;;;;;10.67;84.90;97634.41;5011920;28;20050;-80
2022/11/17 05:01:25;;;;;;;2.70;1.17;;;;;;;10.66;84.63;97624.44;5012036;28;20480;-79
2022/11/17 05:03:55;;;;;;;2.00;1.20;;;;;;;10.72;84.52;97633.25;5011907;28;20069;-79
2022/11/17 05:06:24;;;;;;;1.60;0.98;;;;;;;10.66;83.59;97629.22;5020359;28;20064;-79
2022/11/17 05:08:54;;;;;;;1.75;0.95;;;;;;;10.80;83.85;97623.78;5030669;28;20050;-79
2022/11/17 05:14:08;;;;;;;1.90;0.90;;;;;;;10.81;83.53;97622.56;5031838;28;20072;-79
2022/11/17 05:19:23;;;;;;;1.67;0.98;;;;;;;10.94;82.56;97623.06;5036349;28;20484;-79
2022/11/17 05:21:50;;;;;;;2.72;1.08;;;;;;;11.00;81.92;97624.28;5031037;28;20061;-79
2022/11/17 05:24:17;;;;;;;2.85;0.93;;;;;;;11.00;81.30;97610.38;5037932;28;20057;-79
2022/11/17 05:26:46;;;;;;;3.10;1.20;;;;;;;11.11;81.46;97594.53;5034519;28;20072;-79
2022/11/17 05:29:17;;;;;;;2.35;1.10;;;;;;;11.10;81.52;97592.13;5034832;28;20070;-79
2022/11/17 05:31:45;;;;;;;1.90;0.90;;;;;;;11.08;81.50;97581.38;5032578;28;20049;-79
2022/11/17 05:34:14;;;;;;;2.45;1.35;;;;;;;11.15;80.78;97586.22;5035136;28;20061;-79
2022/11/17 05:36:44;;;;;;;2.50;1.10;;;;;;;11.11;80.32;97580.63;5034457;28;20061;-78
2022/11/17 05:39:12;;;;;;;3.45;1.30;;;;;;;11.02;79.93;97573.78;5033021;28;20053;-78
2022/11/17 05:41:40;;;;;;;3.13;1.13;;;;;;;11.06;80.21;97566.25;5032361;28;20145;-78
2022/11/17 05:44:07;;;;;;;3.17;1.50;;;;;;;11.01;79.42;97563.84;5032124;28;20064;-78
2022/11/17 05:46:35;;;;;;;1.58;1.05;;;;;;;11.02;79.14;97569.00;5033791;28;20057;-78
2022/11/17 05:49:02;;;;;;;4.60;1.38;;;;;;;11.06;79.03;97552.31;5034505;28;20521;-78
2022/11/17 05:51:31;;;;;;;2.10;1.48;;;;;;;11.11;78.75;97554.75;5033348;28;20053;-79
2022/11/17 05:53:59;;;;;;;2.03;1.20;;;;;;;11.07;78.57;97545.56;5033712;28;20065;-78
2022/11/17 05:56:38;;;;;;;4.22;1.50;;;;;;;11.14;78.37;97549.19;5033898;28;20065;-78
2022/11/17 05:59:15;;;;;;;2.20;1.20;;;;;;;11.17;77.84;97555.94;5029827;28;20053;-78
2022/11/17 06:01:47;;;;;;;3.63;1.40;;;;;;;11.19;77.62;97553.56;5033500;28;20065;-79
2022/11/17 06:04:18;;;;;;;2.53;1.38;;;;;;;11.18;78.35;97547.22;5031040;28;20065;-79
2022/11/17 06:06:47;;;;;;;3.60;1.48;;;;;;;11.23;78.21;97548.81;5022989;28;20050;-79
2022/11/17 06:09:15;;;;;;;4.03;1.48;;;;;;;11.24;77.45;97550.44;5029013;28;20061;-79
2022/11/17 06:11:43;;;;;;;3.57;1.50;;;;;;;11.24;77.29;97556.00;5017840;28;20045;-78
2022/11/17 06:14:11;;;;;;;3.33;1.60;;;;;;;11.29;77.83;97569.56;5034285;28;20065;-78
2022/11/17 06:16:42;;;;;;;2.42;1.40;;;;;;;11.41;77.44;97570.41;5034006;28;20057;-79
2022/11/17 06:19:16;;;;;;;4.05;1.85;;;;;;;11.44;78.13;97576.00;5033912;28;20084;-78
2022/11/17 06:21:44;;;;;;;2.85;1.58;;;;;;;11.42;78.58;97575.59;5028847;28;20061;-78
2022/11/17 06:24:11;;;;;;;3.25;1.85;;;;;;;11.46;78.06;97581.19;5024918;28;20399;-78
2022/11/17 06:26:42;;;;;;;3.22;2.45;;;;;;;11.17;81.91;97587.41;5026832;28;20064;-77
2022/11/17 06:29:11;;;;;;;6.18;2.25;;;;;;;10.88;85.46;97594.00;5025904;28;20079;-78
2022/11/17 06:31:40;;;;;;;6.93;2.50;;;;;;;10.68;88.74;97588.66;5020903;28;20061;-78
2022/11/17 06:34:07;;;;;;;7.30;3.75;;;;;;;10.55;92.73;97585.38;5029145;28;20422;-79
2022/11/17 06:36:36;;;;;;;5.38;3.42;;;;;;;10.53;93.44;97582.19;5029507;28;20053;-79
2022/11/17 06:39:04;;;;;;;8.00;3.35;;;;;;;10.54;93.95;97581.03;5028655;28;20080;-80
2022/11/17 06:41:32;;;;;;;6.53;3.20;;;;;;;10.54;94.41;97580.19;5029749;28;20060;-79
2022/11/17 06:44:01;;;;;;;6.28;3.30;;;;;;;10.48;95.08;97571.44;5028746;28;20064;-79
2022/11/17 06:46:38;;;;;;;5.82;3.85;;;;;;;10.39;95.54;97579.28;5025470;28;20645;-81
2022/11/17 06:49:06;;;;;;;7.63;3.70;;;;;;;10.40;96.91;97569.78;5031138;28;20064;-80
2022/11/17 06:51:33;;;;;;;8.98;4.28;;;;;;;10.28;97.39;97562.47;5028216;28;20061;-82
2022/11/17 06:54:02;;;;;;;7.20;3.35;;;;;;;10.25;97.70;97579.16;5033037;28;20062;-84
2022/11/17 06:56:29;;;;;;;9.35;4.00;;;;;;;10.36;99.50;97568.94;5033428;28;20061;-84
2022/11/17 06:58:57;;;;;;;6.43;4.13;;;;;;;10.31;99.10;97578.44;5033170;28;20068;-83
2022/11/17 07:01:26;;;;;;;8.38;4.35;;;;;;;10.46;98.80;97575.78;5025874;28;20053;-83
2022/11/17 07:03:54;;;;;;;13.47;4.80;;;;;;;10.55;99.58;97596.53;5032062;28;20076;-81
2022/11/17 07:06:21;;;;;;;9.15;4.50;;;;;;;10.67;100.00;97598.22;5033080;28;20417;-85
2022/11/17 07:08:49;;;;;;;10.85;3.90;;;;;;;10.50;99.56;97601.66;5014265;28;20069;-86
2022/11/17 07:11:17;;;;;;;12.27;4.80;;;;;;;10.59;99.74;97609.69;5013991;28;20064;-86
2022/11/17 07:13:45;;;;;;;17.85;4.10;;;;;;;10.68;99.84;97619.28;5024401;28;20410;-86
2022/11/17 07:16:14;;;;;;;8.45;4.85;;;;;;;10.79;100.00;97622.16;5032858;28;20541;-87
2022/11/17 07:18:43;;;;;;;11.50;4.28;;;;;;;10.83;100.00;97622.97;5030331;28;20117;-86
2022/11/17 07:21:12;;;;;;;13.98;4.82;;;;;;;10.76;100.00;97615.38;5022505;28;20052;-86
2022/11/17 07:23:41;;;;;;;12.40;3.15;;;;;;;10.77;100.00;97617.00;5020191;28;20068;-85
2022/11/17 07:26:08;;;;;;;16.20;4.68;;;;;;;10.80;100.00;97620.97;5025180;28;20057;-86
2022/11/17 07:28:36;;;;;;;17.92;4.88;;;;;;;10.81;100.00;97614.22;5025369;28;20499;-87
2022/11/17 07:31:04;;;;;;;10.27;4.60;;;;;;;10.84;100.00;97616.25;5031316;28;20050;-86
2022/11/17 07:33:33;;;;;;;7.93;4.30;;;;;;;10.94;100.00;97621.09;5022473;28;20057;-87
2022/11/17 07:36:08;;;;;;;8.98;4.70;;;;;;;11.03;100.00;97614.38;5023843;28;20129;-87
2022/11/17 07:38:36;;;;;;;10.63;5.57;;;;;;;10.90;100.00;97620.28;5034077;28;20061;-87
2022/11/17 07:41:05;;;;;;;11.20;5.38;;;;;;;10.97;100.00;97625.09;5033281;28;20049;-87
2022/11/17 07:43:33;;;;;;;8.43;4.40;;;;;;;11.15;100.00;97622.44;5033996;28;20076;-87
2022/11/17 07:46:04;;;;;;;15.40;7.13;;;;;;;11.30;100.00;97610.19;5032678;28;20053;-87
2022/11/17 07:48:33;;;;;;;8.85;3.58;;;;;;;11.24;100.00;97611.72;5033973;28;20076;-87
2022/11/17 07:51:02;;;;;;;3.90;2.05;;;;;;;11.15;100.00;97608.50;5027021;28;20088;-87
2022/11/17 07:53:32;;;;;;;6.38;2.38;;;;;;;11.20;99.10;97607.34;5034253;28;20064;-87
2022/11/17 07:56:03;;;;;;;6.82;2.10;;;;;;;11.15;96.01;97617.66;5033133;28;20502;-88
2022/11/17 07:58:31;;;;;;;4.20;1.70;;;;;;;11.14;93.33;97606.88;5034165;28;20057;-87
2022/11/17 08:00:59;;;;;;;2.78;1.58;;;;;;;11.21;91.30;97608.91;5021919;28;20050;-88
2022/11/17 08:03:26;;;;;;;3.35;1.60;;;;;;;11.10;90.12;97608.84;5015072;28;20060;-88
2022/11/17 08:05:53;;;;;;;4.00;1.30;;;;;;;11.04;89.33;97602.06;5026045;28;20062;-88
2022/11/17 08:08:22;;;;;;;3.08;1.23;;;;;;;11.08;89.13;97608.44;5020826;28;20069;-90
2022/11/17 08:10:51;;;;;;;4.53;1.40;;;;;;;10.99;88.25;97619.13;5017254;28;20414;-92
2022/11/17 08:13:18;;;;;;;3.33;1.17;;;;;;;11.12;88.46;97617.63;5025655;28;20061;-92
2022/11/17 08:15:45;;;;;;;4.93;1.98;;;;;;;11.12;88.00;97631.56;5019455;28;20070;-91
2022/11/17 08:18:13;;;;;;;4.28;1.10;;;;;;;11.15;86.40;97625.22;5019596;28;20062;-91
2022/11/17 08:20:40;;;;;;;2.67;1.15;;;;;;;11.00;86.22;97631.84;5021846;28;20060;-90
2022/11/17 08:23:10;;;;;;;2.47;0.90;;;;;;;11.11;86.30;97638.31;5020418;28;20058;-88
2022/11/17 08:25:42;;;;;;;2.78;0.80;;;;;;;11.00;85.39;97629.88;5023004;28;20080;-90
2022/11/17 08:28:11;;;;;;;3.00;0.98;;;;;;;10.93;85.35;97641.75;4997495;23;20427;-68
2022/11/17 08:30:39;;;;;;;4.40;1.10;;;;;;;11.06;85.20;97644.25;4966800;28;20054;-69
2022/11/17 08:33:06;;;;;;;2.22;1.15;;;;;;;11.09;84.21;97635.13;4965974;28;20066;-69
2022/11/17 08:35:33;;;;;;;3.22;0.93;;;;;;;11.20;84.72;97649.91;4967809;28;20070;-69
2022/11/17 08:38:00;;;;;;;3.08;0.80;;;;;;;11.28;83.95;97639.63;4964298;28;20081;-69
2022/11/17 08:40:28;;;;;;;2.67;1.35;;;;;;;11.38;83.40;97639.69;4965695;28;20062;-69
2022/11/17 08:42:55;;;;;;;2.33;0.77;;;;;;;11.48;83.59;97637.34;4965312;28;20050;-67
2022/11/17 08:45:24;;;;;;;2.70;0.90;;;;;;;11.36;81.75;97641.28;4966301;28;21450;-68
2022/11/17 08:47:51;;;;;;;2.58;0.90;;;;;;;11.51;81.70;97653.28;4965584;28;20062;-69
2022/11/17 08:50:19;;;;;;;1.98;0.70;;;;;;;11.52;80.54;97672.41;4969228;28;20069;-70
2022/11/17 08:52:47;;;;;;;1.15;0.70;;;;;;;11.56;80.57;97655.69;4969378;28;20065;-69
2022/11/17 08:55:15;;;;;;;1.98;0.70;;;;;;;11.59;79.58;97666.09;4966594;28;20063;-70
2022/11/17 08:57:42;;;;;;;3.35;0.60;;;;;;;11.69;79.37;97665.31;4966410;28;20062;-70
2022/11/17 09:00:11;;;;;;;2.47;0.82;;;;;;;11.72;80.14;97672.13;4973409;28;20081;-70
2022/11/17 09:02:39;;;;;;;2.80;1.00;;;;;;;11.65;79.78;97691.59;4967239;28;20067;-69
2022/11/17 09:05:08;;;;;;;4.15;0.80;;;;;;;11.58;81.36;97686.78;4974020;28;20054;-67
2022/11/17 09:07:35;;;;;;;2.00;0.88;;;;;;;11.57;82.75;97708.28;4975292;28;20062;-70
2022/11/17 09:10:04;;;;;;;5.10;0.88;;;;;;;11.50;82.96;97699.06;4975209;28;20074;-70
2022/11/17 09:12:32;;;;;;;2.05;0.70;;;;;;;11.59;82.86;97688.38;4970108;28;20062;-70
2022/11/17 09:14:59;;;;;;;1.63;0.70;;;;;;;11.42;82.51;97708.56;4972130;28;20055;-70
2022/11/17 09:17:26;;;;;;;2.70;0.75;;;;;;;11.49;82.46;97715.00;4968447;28;20431;-70
2022/11/17 09:19:55;;;;;;;1.77;0.75;;;;;;;11.53;82.28;97706.66;4974270;28;20510;-69
2022/11/17 09:22:23;;;;;;;3.15;1.00;;;;;;;11.41;83.46;97738.44;4972159;28;20050;-70
2022/11/17 09:24:50;;;;;;;3.08;0.85;;;;;;;11.36;84.01;97719.31;4974635;28;20058;-69
2022/11/17 09:27:18;;;;;;;2.78;1.02;;;;;;;11.46;83.18;97723.31;4976751;28;20050;-69
2022/11/17 09:29:45;;;;;;;3.17;0.80;;;;;;;11.44;82.49;97725.69;4994227;28;20065;-70
2022/11/17 09:32:12;;;;;;;1.55;0.65;;;;;;;11.46;81.93;97735.28;4989640;28;20061;-67
2022/11/17 09:34:39;;;;;;;2.70;0.70;;;;;;;11.53;81.65;97734.53;4994469;28;20066;-71
2022/11/17 09:37:08;;;;;;;1.65;0.70;;;;;;;11.72;81.64;97730.69;4995262;28;20069;-69
2022/11/17 09:39:35;;;;;;;2.75;0.90;;;;;;;11.91;80.96;97724.03;4981029;28;20065;-70
2022/11/17 09:42:03;;;;;;;3.28;0.93;;;;;;;12.19;80.96;97724.16;4992749;28;20061;-70
2022/11/17 09:44:39;;;;;;;2.83;1.05;;;;;;;12.35;78.87;97725.81;4990500;28;20050;-69
2022/11/17 09:47:19;;;;;;;3.97;0.90;;;;;;;12.36;76.51;97725.41;4991409;28;20061;-69
2022/11/17 09:49:54;;;;;;;2.90;1.08;;;;;;;12.94;77.30;97731.91;4994587;28;20051;-69
2022/11/17 09:52:29;;;;;;;2.25;0.70;;;;;;;13.29;75.80;97724.78;4993577;28;20462;-69
2022/11/17 09:54:58;;;;;;;3.25;0.80;;;;;;;13.39;75.15;97725.94;4980095;28;20388;-70
2022/11/17 09:57:33;;;;;;;1.45;0.60;;;;;;;13.37;74.27;97739.53;4992350;28;21132;-70
2022/11/17 10:00:12;;;;;;;3.05;0.93;;;;;;;13.49;74.42;97719.56;4981066;28;20077;-69
2022/11/17 10:02:39;;;;;;;1.70;1.10;;;;;;;13.50;73.60;97731.53;4994103;28;20423;-70
2022/11/17 10:05:13;;;;;;;3.45;0.90;;;;;;;13.53;73.73;97737.13;4993967;28;20404;-70
2022/11/17 10:07:46;;;;;;;4.43;0.88;;;;;;;13.37;72.60;97729.13;4994400;28;20062;-69
2022/11/17 10:10:19;;;;;;;2.67;0.80;;;;;;;13.34;72.46;97735.53;4993201;28;20529;-71
2022/11/17 10:12:51;;;;;;;2.17;0.80;;;;;;;13.52;72.88;97740.31;4993845;28;20058;-70
2022/11/17 10:15:27;;;;;;;3.65;0.70;;;;;;;13.71;72.05;97739.09;4993209;28;20068;-71
2022/11/17 10:17:59;;;;;;;1.73;0.60;;;;;;;13.69;71.29;97745.09;4993271;28;20062;-72
2022/11/17 10:20:26;;;;;;;2.83;1.02;;;;;;;13.68;72.49;97746.28;4993964;28;20065;-71
2022/11/17 10:22:56;;;;;;;2.28;0.80;;;;;;;13.80;71.56;97753.47;4992810;28;20057;-71
2022/11/17 10:25:36;;;;;;;;;;;;;;;13.60;71.22;97755.88;4993967;28;20529;-71
2022/11/17 10:28:06;;;;;;;;;;;;;;;14.02;71.13;97745.81;4981450;28;19929;-71
2022/11/17 10:30:34;;;;;;;2.38;0.85;;;;;;;14.68;66.19;97755.56;4969683;28;19922;-72
2022/11/17 10:33:02;;;;;;;2.05;0.90;;;;;;;14.54;68.82;97762.81;4972382;28;20055;-71
2022/11/17 10:35:32;;;;;;;1.98;0.80;;;;;;;14.12;68.60;97756.19;4973491;28;20500;-73
2022/11/17 10:38:06;;;;;;;2.15;0.75;;;;;;;14.17;69.60;97749.34;4971978;28;20054;-70
2022/11/17 10:40:47;;;;;;;4.30;1.20;;;;;;;13.97;69.67;97757.44;4973954;28;20411;-71
2022/11/17 10:43:25;;;;;;;2.58;0.80;;;;;;;13.96;68.90;97758.63;4973501;28;20510;-71
2022/11/17 10:45:55;;;;;;;3.53;0.93;;;;;;;13.89;68.84;97772.63;4972165;28;20411;-69
2022/11/17 10:48:34;;;;;;;2.40;0.88;;;;;;;13.85;69.06;97766.25;4974158;28;20090;-69
2022/11/17 10:51:03;;;;;;;2.53;0.90;;;;;;;13.56;68.37;97760.69;4973011;28;20066;-69
2022/11/17 10:53:36;;;;;;;2.90;0.80;;;;;;;13.66;70.33;97767.47;4973490;28;20500;-69
2022/11/17 10:56:10;;;;;;;3.38;1.42;;;;;;;13.63;69.79;97765.47;4968619;28;20138;-68
2022/11/17 10:59:03;;;;;;;3.80;1.17;;;;;;;13.75;69.29;97773.44;4973144;28;20519;-68
2022/11/17 11:01:34;;;;;;;2.85;0.98;;;;;;;14.02;70.36;97777.38;4971777;28;20055;-68
2022/11/17 11:04:04;;;;;;;3.22;0.90;;;;;;;13.95;69.79;97773.81;4960346;28;20061;-68
2022/11/17 11:06:32;;;;;;;2.95;1.05;;;;;;;14.02;70.08;97762.59;4971124;28;20059;-62
2022/11/17 11:09:05;;;;;;;2.00;0.82;;;;;;;13.74;70.08;97772.66;4968042;28;20058;-74
2022/11/17 11:11:44;;;;;;;4.55;1.10;;;;;;;13.69;70.48;97781.47;4970543;28;20058;-69
2022/11/17 11:14:20;;;;;;;2.70;0.82;;;;;;;13.54;72.14;97785.47;4967729;28;20520;-67
2022/11/17 11:16:49;;;;;;;4.22;1.38;;;;;;;13.30;75.01;97782.28;4972266;28;20464;-67
2022/11/17 11:19:19;;;;;;;2.75;1.00;;;;;;;13.18;74.53;97782.63;4968708;28;20435;-68
2022/11/17 11:22:08;;;;;;;5.10;1.50;;;;;;;12.95;80.68;97772.63;4974038;28;20050;-67
2022/11/17 11:24:52;;;;;;;2.47;1.27;;;;;;;12.93;78.78;97780.59;4963123;28;20066;-66
2022/11/17 11:27:34;;;;;;;3.17;1.10;;;;;;;13.20;79.25;97783.03;4975184;28;21022;-71
2022/11/17 11:30:04;;;;;;;5.63;1.42;;;;;;;13.39;77.99;97779.88;4990178;28;20427;-70
2022/11/17 11:32:47;;;;;;;4.53;1.13;;;;;;;13.52;75.44;97788.69;4988912;28;21395;-71
2022/11/17 11:35:48;;;;;;;2.08;0.90;;;;;;;13.59;74.33;97779.47;4988016;28;20129;-71
2022/11/17 11:38:30;;;;;;;2.50;1.00;;;;;;;13.80;72.78;97793.44;4972690;28;20065;-71
2022/11/17 11:41:11;;;;;;;1.85;1.08;;;;;;;13.84;71.37;97787.03;4992929;28;20062;-70
2022/11/17 11:43:49;;;;;;;3.03;1.00;;;;;;;14.26;70.46;97799.31;4990677;28;20061;-71
2022/11/17 11:46:21;;;;;;;4.15;0.80;;;;;;;14.07;69.49;97786.56;4993178;28;20058;-70
2022/11/17 11:48:54;;;;;;;2.10;0.70;;;;;;;13.79;68.96;97794.63;4992360;28;20065;-70
2022/11/17 11:51:29;;;;;;;2.78;0.73;;;;;;;13.79;70.16;97811.41;4988635;28;20072;-71
2022/11/17 11:54:01;;;;;;;3.15;0.70;;;;;;;13.83;69.86;97799.44;4988530;28;20054;-71
2022/11/17 11:56:34;;;;;;;2.75;0.80;;;;;;;13.58;70.10;97808.63;4990019;28;20081;-72
2022/11/17 11:59:06;;;;;;;3.67;0.90;;;;;;;13.69;69.98;97817.00;4992055;28;20506;-72
2022/11/17 12:01:43;;;;;;;3.75;0.95;;;;;;;13.68;71.26;97807.84;4992850;28;20065;-73
2022/11/17 12:04:25;;;;;;;5.85;1.00;;;;;;;13.69;70.70;97812.25;4989515;28;20055;-71
2022/11/17 12:06:59;;;;;;;2.72;0.93;;;;;;;13.79;69.88;97805.81;4992147;28;20058;-72
2022/11/17 12:09:49;;;;;;;2.00;0.65;;;;;;;13.68;69.59;97819.03;4991737;28;20423;-73
2022/11/17 12:12:24;;;;;;;2.97;0.77;;;;;;;13.84;67.79;97827.00;4992815;28;20130;-73
2022/11/17 12:15:29;;;;;;;4.05;0.88;;;;;;;13.99;68.23;97813.78;4992131;28;20411;-73
2022/11/17 12:17:59;;;;;;;2.50;0.98;;;;;;;14.15;68.19;97819.78;4992114;28;20062;-72
2022/11/17 12:21:01;;;;;;;1.60;0.65;;;;;;;14.16;68.85;97821.34;4988899;28;20070;-73
2022/11/17 12:23:53;;;;;;;1.95;0.60;;;;;;;14.12;67.07;97823.34;4990631;28;20070;-72